メインページ
METAR-TAF:

METAR-TAF

空港 :

Kapuskasing, オンタリオ州, カナダ

緯度: 49-25N, 経度: 082-28W, 海抜: 227m

現時点の気象観測

当レポートは39分前の13:00(UTC)に作成
西の風 9kt
気温 23°C
湿度 65%
気圧 1004 hPa
視程: 24.1km
高度9500ftの雲はほとんどない

METAR: CYYU 201300Z 28009KT 15SM FEW095 23/16 A2964 RMK AC2 SLP037 DENSITY ALT 2200FT

時間: 09:39 (13:39 UTC)

予報

当レポートは6時間0分前の07:39(UTC)に作成
予報は20日の 08時(UTC)から 20日の 20時(UTC)まで有効
南西の風 12kt
視程: 10km
高度12000ftの雲は散在している
高度15000ftの曇り
20日の 08時(UTC)から 20日の 10時(UTC)まで一時的に
視程: 10km
弱いにわか雨
20日の 1000時(UTC)から
西の風 10kt
視程: 10km
高度7000ftの雲は散在している
20日の 12時(UTC)から 20日の 14時(UTC)まで徐々に
西/北西の風 12kt、最大22ktの突風を伴う
20日の 1800時(UTC)から
北西の風 12kt
視程: 10km
高度5000ftの千切れ雲あり
弱いにわか雨

TAF: CYYU 200739Z 2008/2020 23012KT P6SM SCT120 OVC150 TEMPO 2008/2010 P6SM -SHRA FM201000 27010KT P6SM SCT070 BECMG 2012/2014 30012G22KT FM201800 32012KT P6SM -SHRA BKN050 RMK NXT FCST BY 201400Z

4,000以上の空港の気象観測と天気予報(METAR報とTAF報)

利用可能な観測所は地図上に黄色い丸と赤い丸で示す。

丸の上にカーソルを重ねると観測所名を参照できる。

次にクリックすると気象観測と天気予報を参照できる。

マップの切り替え:黒色「×」印の緑ボタンをクリックして拡大、「-」印の緑ボタンをクリックして縮小、緑色の三角印をクリックして隣りの地図に切り替え


METAR-TAF: